Time;durP1;ratioP1;P1;durP2;ratioP2;P2;SDS_P1;SDS_P2;PMS_P1;PMS_P2;Temp;Humidity;BMP_temperature;BMP_pressure;BME280_temperature;BME280_humidity;BME280_pressure;Samples;Min_cycle;Max_cycle;Signal;HPM_P1;HPM_P2
2022/05/19 00:00:36;;;;;;;6.72;3.30;;;19.60;72.00;;;;;;4975646;28;20042;-77
2022/05/19 00:03:07;;;;;;;7.93;3.60;;;19.50;72.20;;;;;;4977014;28;20058;-75
2022/05/19 00:05:34;;;;;;;9.07;3.80;;;19.50;72.40;;;;;;4977141;28;20050;-77
2022/05/19 00:08:01;;;;;;;6.35;3.65;;;19.40;72.40;;;;;;4980198;28;20043;-77
2022/05/19 00:10:28;;;;;;;7.70;3.78;;;19.40;72.50;;;;;;4979109;28;20117;-77
2022/05/19 00:12:58;;;;;;;7.25;3.80;;;19.30;72.70;;;;;;4977169;28;20054;-79
2022/05/19 00:15:26;;;;;;;7.85;3.60;;;19.30;72.70;;;;;;4976236;28;22284;-77
2022/05/19 00:17:55;;;;;;;6.70;4.10;;;19.30;72.70;;;;;;4974918;28;20046;-78
2022/05/19 00:20:22;;;;;;;8.93;3.90;;;19.30;72.60;;;;;;4975521;28;20046;-76
2022/05/19 00:22:49;;;;;;;7.75;3.33;;;19.30;72.50;;;;;;4976686;28;20069;-77
2022/05/19 00:25:16;;;;;;;6.43;3.47;;;19.20;72.50;;;;;;4977222;28;20149;-77
2022/05/19 00:27:43;;;;;;;7.28;3.55;;;19.20;72.70;;;;;;4976353;28;20042;-78
2022/05/19 00:30:11;;;;;;;7.22;3.17;;;19.10;72.70;;;;;;4972885;28;20054;-76
2022/05/19 00:32:39;;;;;;;6.15;3.33;;;19.10;72.70;;;;;;4977032;28;20043;-78
2022/05/19 00:35:07;;;;;;;7.43;3.22;;;19.10;72.90;;;;;;4975239;28;20049;-78
2022/05/19 00:37:34;;;;;;;7.05;3.60;;;19.10;72.90;;;;;;4976886;28;20465;-75
2022/05/19 00:40:01;;;;;;;5.65;3.17;;;19.10;73.00;;;;;;4976669;28;20716;-75
2022/05/19 00:42:46;;;;;;;7.80;3.80;;;19.00;72.90;;;;;;4975215;28;20054;-77
2022/05/19 00:45:17;;;;;;;6.18;3.20;;;19.00;73.10;;;;;;4969340;28;20050;-77
2022/05/19 00:47:49;;;;;;;6.57;3.70;;;19.00;73.10;;;;;;4973901;28;20037;-77
2022/05/19 00:50:22;;;;;;;7.50;3.65;;;19.00;73.10;;;;;;4975005;28;20039;-76
2022/05/19 00:52:52;;;;;;;6.28;3.60;;;19.00;73.10;;;;;;4976508;28;20045;-78
2022/05/19 00:55:23;;;;;;;6.85;3.50;;;19.00;73.00;;;;;;4977463;28;20039;-77
2022/05/19 00:57:55;;;;;;;6.97;3.13;;;19.00;73.20;;;;;;4976655;28;20074;-78
2022/05/19 01:00:23;;;;;;;8.15;4.03;;;18.90;73.40;;;;;;4971847;28;20052;-77
2022/05/19 01:02:55;;;;;;;6.67;2.97;;;18.80;73.60;;;;;;4975508;28;20128;-74
2022/05/19 01:05:28;;;;;;;7.25;3.97;;;18.80;73.70;;;;;;4972952;28;20039;-76
2022/05/19 01:07:59;;;;;;;6.32;3.53;;;18.80;73.80;;;;;;4973725;28;20042;-78
2022/05/19 01:10:29;;;;;;;5.88;3.42;;;18.70;74.00;;;;;;4973606;28;20425;-76
2022/05/19 01:12:58;;;;;;;7.15;3.40;;;18.70;74.00;;;;;;4982162;28;20049;-78
2022/05/19 01:15:25;;;;;;;5.40;3.00;;;18.60;74.10;;;;;;4981400;28;20101;-77
2022/05/19 01:17:54;;;;;;;6.20;3.60;;;18.60;74.20;;;;;;4979360;28;20049;-75
2022/05/19 01:20:24;;;;;;;5.65;3.63;;;18.60;74.20;;;;;;4982553;28;20492;-76
2022/05/19 01:22:53;;;;;;;;;;;18.60;74.30;;;;;;4982400;28;20472;-75
2022/05/19 01:25:28;;;;;;;6.75;3.10;;;18.60;74.40;;;;;;4977985;28;19937;-75
2022/05/19 01:27:58;;;;;;;6.13;3.38;;;18.60;74.40;;;;;;4978235;28;20093;-76
2022/05/19 01:30:25;;;;;;;5.13;2.83;;;18.50;74.40;;;;;;4982395;28;20054;-75
2022/05/19 01:32:53;;;;;;;6.32;3.08;;;18.50;74.40;;;;;;4979752;28;20480;-76
2022/05/19 01:35:21;;;;;;;6.00;2.65;;;18.50;74.20;;;;;;4975640;28;20133;-76
2022/05/19 01:37:48;;;;;;;5.30;3.17;;;18.60;74.10;;;;;;4973070;28;20400;-76
2022/05/19 01:40:42;;;;;;;4.68;2.90;;;18.50;74.20;;;;;;4975554;28;20057;-74
2022/05/19 01:43:18;;;;;;;5.40;2.70;;;18.50;74.20;;;;;;4977453;28;20066;-74
2022/05/19 01:45:55;;;;;;;5.40;2.58;;;18.50;74.10;;;;;;4973307;28;20551;-73
2022/05/19 01:48:30;;;;;;;8.68;3.25;;;18.50;74.00;;;;;;4979341;28;20053;-76
2022/05/19 01:51:04;;;;;;;4.60;2.55;;;18.50;73.80;;;;;;4977761;28;20046;-74
2022/05/19 01:53:38;;;;;;;6.28;2.80;;;18.50;73.50;;;;;;4974728;28;20039;-75
2022/05/19 01:56:10;;;;;;;4.25;2.58;;;18.50;73.60;;;;;;4976060;28;20041;-77
2022/05/19 01:58:45;;;;;;;6.88;3.08;;;18.40;73.60;;;;;;4975551;28;20136;-76
2022/05/19 02:01:14;;;;;;;6.80;2.80;;;18.40;73.50;;;;;;4980640;28;20047;-76
2022/05/19 02:03:48;;;;;;;5.88;3.22;;;18.40;73.70;;;;;;4978953;28;20038;-75
2022/05/19 02:06:18;;;;;;;6.00;2.72;;;18.40;73.90;;;;;;4979544;28;20054;-73
2022/05/19 02:08:49;;;;;;;5.50;3.10;;;18.40;73.80;;;;;;4980294;28;20046;-76
2022/05/19 02:11:20;;;;;;;4.30;2.78;;;18.30;73.70;;;;;;4980100;28;20046;-77
2022/05/19 02:13:49;;;;;;;5.57;3.15;;;18.40;73.60;;;;;;4976907;28;20099;-76
2022/05/19 02:16:17;;;;;;;6.45;3.20;;;18.40;73.30;;;;;;4980355;28;20054;-77
2022/05/19 02:18:47;;;;;;;6.85;3.60;;;18.40;73.30;;;;;;4981978;28;20054;-76
2022/05/19 02:21:14;;;;;;;7.93;2.95;;;18.30;73.40;;;;;;4964811;28;20416;-75
2022/05/19 02:23:42;;;;;;;6.03;3.25;;;18.30;73.30;;;;;;4978189;28;20045;-75
2022/05/19 02:26:10;;;;;;;10.45;3.72;;;18.30;73.50;;;;;;4976584;28;20145;-78
2022/05/19 02:28:42;;;;;;;5.20;2.78;;;18.20;73.80;;;;;;4980340;28;20133;-77
2022/05/19 02:31:11;;;;;;;6.07;3.28;;;18.20;74.00;;;;;;4981574;28;20455;-78
2022/05/19 02:33:38;;;;;;;5.40;3.03;;;18.10;74.10;;;;;;4986060;28;20051;-78
2022/05/19 02:36:06;;;;;;;5.88;3.13;;;18.10;74.20;;;;;;4986294;28;20503;-78
2022/05/19 02:38:33;;;;;;;5.15;2.83;;;18.10;74.30;;;;;;4982551;28;20058;-77
2022/05/19 02:41:00;;;;;;;6.03;3.25;;;18.10;74.30;;;;;;4983152;28;20046;-76
2022/05/19 02:43:28;;;;;;;6.13;2.95;;;18.00;74.30;;;;;;4968893;28;20054;-77
2022/05/19 02:45:54;;;;;;;6.32;3.22;;;18.00;74.40;;;;;;4985464;28;20138;-74
2022/05/19 02:48:23;;;;;;;6.20;3.42;;;17.90;74.50;;;;;;4985212;28;20081;-77
2022/05/19 02:50:50;;;;;;;7.90;3.28;;;17.90;74.50;;;;;;4986635;28;20532;-77
2022/05/19 02:53:19;;;;;;;5.18;3.08;;;17.90;74.60;;;;;;4986575;28;20052;-79
2022/05/19 02:55:46;;;;;;;6.57;3.38;;;17.90;74.50;;;;;;4985425;28;20472;-76
2022/05/19 02:58:15;;;;;;;8.38;3.42;;;17.90;74.60;;;;;;4985953;28;20050;-77
2022/05/19 03:00:44;;;;;;;7.03;2.88;;;17.80;74.80;;;;;;4980501;28;20038;-78
2022/05/19 03:03:11;;;;;;;6.25;2.83;;;17.80;74.70;;;;;;4986599;28;20046;-75
2022/05/19 03:05:40;;;;;;;4.07;2.47;;;17.70;74.90;;;;;;4985363;28;20070;-76
2022/05/19 03:08:08;;;;;;;6.63;2.90;;;17.70;74.80;;;;;;4987096;28;20047;-76
2022/05/19 03:10:37;;;;;;;4.65;2.90;;;17.70;75.00;;;;;;4984902;28;20050;-77
2022/05/19 03:13:04;;;;;;;4.28;2.78;;;17.70;75.00;;;;;;4981657;28;20524;-77
2022/05/19 03:15:32;;;;;;;6.20;3.15;;;17.60;75.20;;;;;;4949892;28;20542;-78
2022/05/19 03:17:59;;;;;;;5.22;2.90;;;17.60;75.20;;;;;;4981672;28;20085;-79
2022/05/19 03:20:26;;;;;;;5.25;2.72;;;17.60;75.20;;;;;;4979451;28;20039;-80
2022/05/19 03:22:54;;;;;;;6.47;2.97;;;17.60;75.20;;;;;;4978256;28;20121;-80
2022/05/19 03:25:21;;;;;;;5.07;2.90;;;17.60;75.10;;;;;;4977527;28;20058;-78
2022/05/19 03:27:48;;;;;;;6.72;3.03;;;17.60;75.10;;;;;;4985329;28;20145;-76
2022/05/19 03:30:17;;;;;;;6.55;3.42;;;17.60;75.30;;;;;;4986140;28;20495;-77
2022/05/19 03:32:44;;;;;;;5.55;3.05;;;17.50;75.50;;;;;;4986675;28;20049;-76
2022/05/19 03:35:12;;;;;;;4.88;2.83;;;17.50;75.40;;;;;;4987475;28;20046;-77
2022/05/19 03:37:39;;;;;;;4.97;3.22;;;17.40;75.50;;;;;;4986074;28;20046;-76
2022/05/19 03:40:10;;;;;;;5.85;2.80;;;17.40;75.50;;;;;;4979927;28;20046;-75
2022/05/19 03:42:37;;;;;;;7.60;3.20;;;17.30;75.60;;;;;;4982094;28;20089;-74
2022/05/19 03:45:05;;;;;;;5.78;2.85;;;17.40;75.50;;;;;;4976920;28;20077;-73
2022/05/19 03:47:32;;;;;;;5.13;2.72;;;17.40;75.40;;;;;;4978718;28;20043;-75
2022/05/19 03:49:59;;;;;;;4.90;2.65;;;17.40;75.50;;;;;;4979534;28;20480;-77
2022/05/19 03:52:26;;;;;;;5.40;3.25;;;17.40;75.50;;;;;;4978570;28;20092;-76
2022/05/19 03:54:54;;;;;;;4.45;2.65;;;17.40;75.40;;;;;;4982676;28;20129;-76
2022/05/19 03:57:23;;;;;;;4.97;2.90;;;17.30;75.60;;;;;;4981370;28;20408;-76
2022/05/19 03:59:50;;;;;;;4.93;2.77;;;17.30;75.70;;;;;;4957891;28;20068;-78
2022/05/19 04:02:18;;;;;;;4.80;2.72;;;17.30;75.70;;;;;;4973698;28;20507;-77
2022/05/19 04:04:45;;;;;;;4.88;2.95;;;17.30;75.70;;;;;;4977928;28;20038;-76
2022/05/19 04:07:12;;;;;;;4.60;2.72;;;17.30;75.60;;;;;;4974335;28;20035;-77
2022/05/19 04:09:40;;;;;;;5.53;3.10;;;17.30;75.60;;;;;;4985362;28;20057;-75
2022/05/19 04:12:08;;;;;;;5.47;2.83;;;17.30;75.40;;;;;;4982644;28;20373;-75
2022/05/19 04:14:36;;;;;;;4.65;2.72;;;17.40;75.40;;;;;;4980922;28;20039;-76
2022/05/19 04:17:04;;;;;;;5.68;3.40;;;17.40;75.20;;;;;;4984950;28;20447;-78
2022/05/19 04:19:31;;;;;;;5.60;2.70;;;17.40;75.20;;;;;;4985545;28;20050;-76
2022/05/19 04:21:59;;;;;;;4.57;2.90;;;17.40;75.10;;;;;;4984410;28;20098;-78
2022/05/19 04:24:29;;;;;;;4.72;3.08;;;17.40;75.00;;;;;;4985300;28;20069;-77
2022/05/19 04:26:56;;;;;;;5.82;2.85;;;17.40;75.00;;;;;;4985410;28;20058;-77
2022/05/19 04:29:23;;;;;;;8.27;3.63;;;17.40;75.00;;;;;;4984688;28;20051;-77
2022/05/19 04:31:51;;;;;;;7.88;2.88;;;17.40;75.30;;;;;;4984947;28;20054;-78
2022/05/19 04:34:18;;;;;;;5.78;2.80;;;17.40;75.20;;;;;;4983821;28;20488;-77
2022/05/19 04:36:46;;;;;;;4.63;2.90;;;17.40;75.40;;;;;;4979341;28;20074;-77
2022/05/19 04:39:14;;;;;;;7.90;3.13;;;17.40;75.20;;;;;;4977935;28;20442;-77
2022/05/19 04:41:40;;;;;;;4.25;2.50;;;17.40;75.20;;;;;;4980299;28;20046;-76
2022/05/19 04:44:07;;;;;;;8.07;3.25;;;17.50;75.30;;;;;;4977849;28;20073;-78
2022/05/19 04:46:34;;;;;;;5.75;2.78;;;17.50;75.10;;;;;;4977273;28;20054;-77
2022/05/19 04:49:03;;;;;;;3.72;2.42;;;17.50;75.10;;;;;;4978638;28;20085;-77
2022/05/19 04:51:30;;;;;;;5.25;2.97;;;17.60;75.00;;;;;;4979247;28;20046;-77
2022/05/19 04:53:58;;;;;;;3.72;2.30;;;17.60;75.20;;;;;;4977915;28;20042;-76
2022/05/19 04:56:25;;;;;;;3.97;2.17;;;17.60;75.30;;;;;;4977858;28;20047;-77
2022/05/19 04:58:52;;;;;;;9.07;2.70;;;17.60;75.40;;;;;;4953750;28;20038;-75
2022/05/19 05:01:19;;;;;;;4.63;2.42;;;17.60;75.50;;;;;;4972025;28;20046;-77
2022/05/19 05:03:46;;;;;;;4.80;2.53;;;17.60;75.40;;;;;;4977054;28;20415;-76
2022/05/19 05:06:14;;;;;;;5.72;2.67;;;17.60;75.30;;;;;;4975524;28;20045;-78
2022/05/19 05:08:41;;;;;;;6.00;3.22;;;17.60;75.20;;;;;;4977966;28;20057;-77
2022/05/19 05:11:08;;;;;;;5.63;2.65;;;17.60;75.30;;;;;;4975869;28;20070;-76
2022/05/19 05:13:35;;;;;;;5.55;2.67;;;17.70;75.30;;;;;;4974941;28;20181;-76
2022/05/19 05:16:02;;;;;;;5.20;2.70;;;17.70;75.40;;;;;;4977483;28;20042;-77
2022/05/19 05:18:28;;;;;;;7.07;2.95;;;17.70;75.60;;;;;;4976560;28;20060;-78
2022/05/19 05:20:55;;;;;;;6.07;2.58;;;17.80;75.50;;;;;;4975348;28;20039;-77
2022/05/19 05:23:24;;;;;;;4.88;2.33;;;17.80;74.80;;;;;;4980025;28;20065;-76
2022/05/19 05:25:50;;;;;;;5.40;2.35;;;17.90;74.10;;;;;;4976964;28;20094;-76
2022/05/19 05:28:18;;;;;;;3.72;2.15;;;17.90;73.80;;;;;;4976463;28;20050;-77
2022/05/19 05:30:46;;;;;;;5.38;2.78;;;17.90;73.70;;;;;;4977354;28;20050;-78
2022/05/19 05:33:20;;;;;;;6.50;2.75;;;17.90;73.70;;;;;;4981858;28;20055;-79
2022/05/19 05:35:47;;;;;;;5.75;2.35;;;18.00;73.80;;;;;;4976228;28;20043;-76
2022/05/19 05:38:14;;;;;;;4.32;2.15;;;18.00;74.10;;;;;;4976160;28;20990;-78
2022/05/19 05:40:42;;;;;;;7.35;2.78;;;18.00;74.10;;;;;;4975196;28;20043;-78
2022/05/19 05:43:11;;;;;;;5.75;2.40;;;18.00;74.30;;;;;;4975473;28;20129;-78
2022/05/19 05:45:40;;;;;;;4.47;2.27;;;18.10;73.90;;;;;;4974639;28;20038;-78
2022/05/19 05:48:08;;;;;;;4.78;2.58;;;18.10;72.50;;;;;;4976844;28;20860;-77
2022/05/19 05:50:35;;;;;;;3.50;2.10;;;18.10;72.40;;;;;;4975389;28;20707;-77
2022/05/19 05:53:02;;;;;;;3.72;2.00;;;18.10;71.30;;;;;;4975458;28;20373;-77
2022/05/19 05:55:29;;;;;;;3.80;1.92;;;18.20;71.10;;;;;;4973822;28;20125;-77
2022/05/19 05:57:57;;;;;;;3.97;2.00;;;18.30;71.80;;;;;;4975620;28;20042;-77
2022/05/19 06:00:25;;;;;;;6.95;2.35;;;18.40;70.00;;;;;;4972595;28;20056;-79
2022/05/19 06:02:52;;;;;;;3.63;1.90;;;18.50;68.80;;;;;;4975669;28;20057;-76
2022/05/19 06:05:19;;;;;;;6.63;2.25;;;18.60;68.10;;;;;;4975781;28;20074;-77
2022/05/19 06:07:46;;;;;;;3.00;1.70;;;18.60;66.40;;;;;;4978599;28;20135;-75
2022/05/19 06:10:15;;;;;;;3.92;1.83;;;18.70;66.70;;;;;;4974997;28;20035;-77
2022/05/19 06:12:42;;;;;;;3.35;1.40;;;18.80;66.80;;;;;;4975633;28;20057;-78
2022/05/19 06:15:15;;;;;;;2.78;1.58;;;18.80;65.80;;;;;;4978109;28;20519;-78
2022/05/19 06:17:41;;;;;;;5.10;1.90;;;18.90;66.40;;;;;;4962692;28;20370;-76
2022/05/19 06:20:10;;;;;;;3.40;1.90;;;19.10;65.80;;;;;;4977296;28;20034;-76
2022/05/19 06:22:40;;;;;;;4.35;1.70;;;19.10;64.80;;;;;;4978214;28;20476;-76
2022/05/19 06:25:08;;;;;;;3.63;1.88;;;19.10;64.00;;;;;;4976478;28;20089;-76
2022/05/19 06:27:35;;;;;;;3.65;1.70;;;19.20;64.00;;;;;;4977785;28;20047;-77
2022/05/19 06:30:07;;;;;;;6.10;1.88;;;19.20;63.50;;;;;;4975928;28;20517;-76
2022/05/19 06:32:35;;;;;;;3.83;1.73;;;19.40;63.50;;;;;;4974650;28;20132;-78
2022/05/19 06:35:02;;;;;;;3.10;1.80;;;19.50;64.10;;;;;;4975502;28;20051;-77
2022/05/19 06:37:30;;;;;;;3.30;1.52;;;19.60;63.50;;;;;;4975608;28;20043;-78
2022/05/19 06:39:56;;;;;;;3.15;1.58;;;19.60;62.60;;;;;;4976239;28;20075;-76
2022/05/19 06:42:23;;;;;;;4.13;1.67;;;19.70;61.30;;;;;;4978740;28;20042;-74
2022/05/19 06:44:51;;;;;;;2.17;1.30;;;19.80;62.10;;;;;;4977852;28;20041;-75
2022/05/19 06:47:18;;;;;;;3.35;1.70;;;20.00;61.60;;;;;;4979870;28;20038;-77
2022/05/19 06:49:49;;;;;;;2.17;1.30;;;20.10;60.60;;;;;;4970437;28;20124;-76
2022/05/19 06:52:18;;;;;;;2.65;1.58;;;20.10;61.70;;;;;;4976341;28;20043;-76
2022/05/19 06:54:46;;;;;;;3.13;1.60;;;20.20;61.70;;;;;;4979122;28;20038;-78
2022/05/19 06:57:13;;;;;;;3.83;1.55;;;20.30;60.90;;;;;;4980224;28;20038;-77
2022/05/19 06:59:40;;;;;;;7.55;1.42;;;20.40;60.80;;;;;;4976393;28;20157;-77
2022/05/19 07:02:08;;;;;;;3.22;1.50;;;20.50;60.60;;;;;;4974913;28;20487;-74
2022/05/19 07:04:35;;;;;;;2.33;1.45;;;20.60;58.70;;;;;;4980219;28;20042;-74
2022/05/19 07:07:05;;;;;;;4.38;1.67;;;20.70;60.00;;;;;;4980673;28;20049;-76
2022/05/19 07:09:32;;;;;;;2.38;1.40;;;20.80;59.60;;;;;;4977141;28;20046;-76
2022/05/19 07:12:00;;;;;;;2.85;1.50;;;21.00;60.00;;;;;;4975586;28;20203;-76
2022/05/19 07:14:27;;;;;;;3.95;1.20;;;21.10;59.10;;;;;;4976240;28;20062;-75
2022/05/19 07:16:54;;;;;;;2.83;1.38;;;21.20;58.80;;;;;;4977583;28;20046;-75
2022/05/19 07:22:09;;;;;;;3.88;1.85;;;21.40;58.40;;;;;;4976879;28;20080;-76
2022/05/19 07:24:36;;;;;;;2.35;1.25;;;21.60;58.40;;;;;;4977838;28;20053;-76
2022/05/19 07:27:02;;;;;;;3.38;1.40;;;21.70;58.10;;;;;;4976584;28;20113;-75
2022/05/19 07:29:29;;;;;;;1.92;1.20;;;21.80;57.30;;;;;;4978266;28;20053;-76
2022/05/19 07:32:00;;;;;;;2.45;1.48;;;22.00;57.00;;;;;;4978168;28;20066;-77
2022/05/19 07:34:32;;;;;;;3.13;1.55;;;22.10;56.70;;;;;;4977325;28;20134;-76
2022/05/19 07:37:00;;;;;;;3.05;1.33;;;22.20;56.30;;;;;;4979911;28;20408;-76
2022/05/19 07:39:28;;;;;;;3.42;1.33;;;22.40;57.20;;;;;;4977811;28;20050;-75
2022/05/19 07:41:56;;;;;;;2.15;1.25;;;22.50;57.30;;;;;;4979472;28;20125;-76
2022/05/19 07:44:24;;;;;;;3.20;1.33;;;22.60;56.20;;;;;;4978577;28;20056;-75
2022/05/19 07:46:52;;;;;;;4.90;1.50;;;22.70;55.80;;;;;;4977839;28;20041;-77
2022/05/19 07:49:19;;;;;;;2.63;1.52;;;22.80;55.30;;;;;;4979095;28;20053;-74
2022/05/19 07:51:47;;;;;;;5.05;1.25;;;22.80;54.90;;;;;;4977714;28;20061;-75
2022/05/19 07:54:16;;;;;;;2.80;1.30;;;22.90;54.00;;;;;;4978969;28;20125;-74
2022/05/19 07:56:45;;;;;;;3.13;1.50;;;23.00;53.80;;;;;;4978298;28;20066;-75
2022/05/19 07:59:14;;;;;;;3.38;1.38;;;23.10;53.90;;;;;;4977967;28;20053;-74
2022/05/19 08:01:42;;;;;;;3.42;1.45;;;23.20;53.30;;;;;;4975426;28;20047;-68
2022/05/19 08:04:11;;;;;;;3.97;1.52;;;23.30;53.90;;;;;;4974908;28;20092;-70
2022/05/19 08:06:38;;;;;;;3.55;1.40;;;23.30;53.00;;;;;;4978848;28;20043;-69
2022/05/19 08:10:20;;;;;;;2.67;1.20;;;23.40;53.40;;;;;;4976282;28;20053;-69
2022/05/19 08:11:55;;;;;;;3.72;1.20;;;23.50;53.80;;;;;;4975867;28;20104;-69
2022/05/19 08:17:10;;;;;;;2.63;1.35;;;23.50;53.00;;;;;;4976902;28;20038;-69
2022/05/19 08:19:37;;;;;;;4.03;1.70;;;23.60;52.90;;;;;;4976041;28;20069;-67
2022/05/19 08:22:06;;;;;;;3.15;1.52;;;23.60;52.60;;;;;;4972466;28;20042;-68
2022/05/19 08:24:35;;;;;;;2.25;1.38;;;23.80;53.30;;;;;;4976349;28;20066;-68
2022/05/19 08:27:05;;;;;;;3.40;1.20;;;23.80;53.30;;;;;;4978032;28;20046;-69
2022/05/19 08:29:33;;;;;;;2.92;1.48;;;23.90;52.90;;;;;;4977747;28;20046;-67
2022/05/19 08:32:00;;;;;;;2.55;1.42;;;24.00;52.70;;;;;;4976152;28;20130;-69
2022/05/19 08:34:27;;;;;;;2.70;1.55;;;24.10;53.00;;;;;;4975158;28;20065;-68
2022/05/19 08:36:54;;;;;;;2.65;1.30;;;24.10;53.40;;;;;;4976331;28;20042;-69
2022/05/19 08:39:22;;;;;;;3.08;1.52;;;24.20;53.40;;;;;;4974650;28;20058;-68
2022/05/19 08:41:53;;;;;;;2.20;1.20;;;24.30;53.10;;;;;;4977138;28;20047;-68
2022/05/19 08:44:27;;;;;;;3.15;1.63;;;24.30;53.00;;;;;;4974539;28;20047;-70
2022/05/19 08:46:57;;;;;;;2.53;1.55;;;24.40;52.80;;;;;;4974683;28;20126;-68
2022/05/19 08:49:35;;;;;;;2.72;1.50;;;24.50;52.80;;;;;;4975121;28;20085;-68
2022/05/19 08:52:06;;;;;;;2.67;1.63;;;24.60;52.60;;;;;;4963969;28;20480;-67
2022/05/19 08:54:35;;;;;;;2.72;1.50;;;24.60;52.80;;;;;;4975931;28;20128;-67
2022/05/19 08:57:08;;;;;;;2.47;1.10;;;24.70;52.80;;;;;;4974333;28;20500;-70
2022/05/19 08:59:49;;;;;;;2.40;1.20;;;24.70;52.60;;;;;;4975196;28;20051;-70
2022/05/19 09:02:22;;;;;;;2.47;1.20;;;24.70;52.30;;;;;;4970656;28;20130;-68
2022/05/19 09:05:02;;;;;;;3.90;1.40;;;24.80;52.20;;;;;;4976445;28;20049;-69
2022/05/19 09:10:46;;;;;;;2.47;1.20;;;24.90;52.00;;;;;;4973589;28;20045;-69
2022/05/19 09:13:24;;;;;;;2.63;1.20;;;24.90;51.70;;;;;;4970022;28;22251;-68
2022/05/19 09:15:55;;;;;;;2.58;1.30;;;24.90;50.90;;;;;;4973939;28;20050;-69
2022/05/19 09:18:32;;;;;;;2.92;1.40;;;24.90;50.80;;;;;;4975540;28;20042;-70
2022/05/19 09:21:00;;;;;;;2.45;1.30;;;25.00;51.20;;;;;;4976398;28;20060;-68
2022/05/19 09:23:28;;;;;;;3.90;1.60;;;25.00;51.10;;;;;;4978649;28;20055;-68
2022/05/19 09:26:05;;;;;;;2.88;1.40;;;25.00;51.40;;;;;;4977749;28;20049;-70
2022/05/19 09:28:35;;;;;;;2.90;1.45;;;25.10;51.40;;;;;;4976327;28;20078;-68
2022/05/19 09:31:03;;;;;;;1.95;1.13;;;25.20;51.60;;;;;;4977245;28;20049;-68
2022/05/19 09:33:32;;;;;;;3.55;1.45;;;25.30;51.10;;;;;;4981125;28;20042;-70
2022/05/19 09:36:00;;;;;;;3.35;1.58;;;25.40;50.60;;;;;;4979135;28;20038;-69
2022/05/19 09:38:33;;;;;;;2.65;1.30;;;25.40;50.60;;;;;;4975498;28;20136;-68
2022/05/19 09:41:04;;;;;;;2.90;1.30;;;25.40;50.40;;;;;;4972452;28;20069;-69
2022/05/19 09:43:34;;;;;;;4.15;1.40;;;25.50;50.30;;;;;;4976938;28;20533;-69
2022/05/19 09:46:05;;;;;;;2.63;1.40;;;25.50;50.40;;;;;;4976346;28;20458;-70
2022/05/19 09:48:35;;;;;;;2.17;1.33;;;25.60;50.30;;;;;;4974785;28;20043;-68
2022/05/19 09:51:05;;;;;;;3.05;1.60;;;25.60;50.40;;;;;;4974944;28;20061;-70
2022/05/19 09:53:39;;;;;;;4.00;1.60;;;25.70;50.30;;;;;;4976672;28;20125;-68
2022/05/19 09:56:11;;;;;;;2.53;1.55;;;25.80;49.80;;;;;;4975604;28;20396;-68
2022/05/19 09:58:44;;;;;;;2.17;1.20;;;25.80;49.60;;;;;;4976562;28;20039;-69
2022/05/19 10:01:20;;;;;;;4.07;1.50;;;25.90;49.10;;;;;;4970364;28;20150;-69
2022/05/19 10:03:52;;;;;;;4.18;1.25;;;25.90;49.20;;;;;;4975390;28;20049;-70
2022/05/19 10:06:21;;;;;;;2.05;1.30;;;25.90;49.20;;;;;;4976422;28;20051;-69
2022/05/19 10:08:58;;;;;;;2.55;1.15;;;25.90;49.00;;;;;;4974350;28;20056;-69
2022/05/19 10:11:28;;;;;;;3.97;1.90;;;25.80;49.20;;;;;;4977385;28;20395;-69
2022/05/19 10:13:58;;;;;;;4.72;1.77;;;25.80;49.20;;;;;;4972415;28;20947;-70
2022/05/19 10:16:37;;;;;;;3.67;1.70;;;25.80;48.90;;;;;;4976028;28;20050;-68
2022/05/19 10:19:17;;;;;;;3.92;1.45;;;25.90;48.80;;;;;;4975476;28;20151;-69
2022/05/19 10:22:00;;;;;;;3.00;1.45;;;26.00;48.40;;;;;;4976632;28;20412;-69
2022/05/19 10:24:44;;;;;;;3.05;1.40;;;26.00;48.30;;;;;;4979540;28;20054;-68
2022/05/19 10:33:06;;;;;;;4.88;2.03;;;26.10;48.70;;;;;;4978518;28;20045;-68
2022/05/19 10:35:45;;;;;;;4.18;1.95;;;26.10;48.60;;;;;;4977812;28;20098;-69
2022/05/19 10:38:32;;;;;;;3.95;1.80;;;26.10;48.70;;;;;;4978791;28;20066;-69
2022/05/19 10:41:12;;;;;;;6.13;2.33;;;26.10;48.70;;;;;;4979935;28;20117;-66
2022/05/19 10:44:00;;;;;;;5.38;2.53;;;26.10;48.60;;;;;;4978411;28;20046;-68
2022/05/19 10:46:34;;;;;;;7.07;2.20;;;26.00;48.50;;;;;;4975602;28;20065;-68
2022/05/19 10:49:26;;;;;;;8.02;3.88;;;26.10;48.70;;;;;;4978618;28;20065;-70
2022/05/19 10:52:05;;;;;;;7.15;3.83;;;26.10;48.70;;;;;;4975235;28;20046;-69
2022/05/19 10:54:44;;;;;;;8.70;3.38;;;26.10;48.90;;;;;;4975887;28;20542;-70
2022/05/19 10:57:25;;;;;;;6.97;2.53;;;26.30;49.00;;;;;;4979628;28;20520;-68
2022/05/19 11:00:08;;;;;;;3.80;2.10;;;26.30;48.40;;;;;;4978066;28;20124;-70
2022/05/19 11:03:15;;;;;;;5.22;2.20;;;26.30;48.40;;;;;;4979151;28;20065;-70
2022/05/19 11:06:02;;;;;;;5.15;2.25;;;26.30;48.60;;;;;;4978889;28;20520;-68
2022/05/19 11:08:49;;;;;;;5.45;2.25;;;26.30;48.80;;;;;;4977908;28;20038;-69
2022/05/19 11:11:21;;;;;;;3.70;1.88;;;26.40;48.70;;;;;;4978470;28;20046;-70
2022/05/19 11:14:01;;;;;;;3.63;1.63;;;26.40;49.00;;;;;;4979005;28;20137;-69
2022/05/19 11:16:41;;;;;;;3.53;1.70;;;26.50;48.40;;;;;;4980753;28;20043;-70
2022/05/19 11:19:15;;;;;;;2.97;2.00;;;26.40;48.60;;;;;;4980483;28;20046;-69
2022/05/19 11:21:50;;;;;;;2.80;1.73;;;26.40;48.60;;;;;;4979084;28;20053;-70
2022/05/19 11:24:22;;;;;;;1.95;1.20;;;26.40;48.10;;;;;;4978559;28;20856;-70
2022/05/19 11:26:56;;;;;;;2.63;1.50;;;26.40;48.10;;;;;;4979896;28;20039;-68
2022/05/19 11:29:32;;;;;;;2.95;1.25;;;26.40;48.10;;;;;;4978857;28;20046;-70
2022/05/19 11:32:04;;;;;;;1.85;1.27;;;26.30;48.00;;;;;;4976061;28;20054;-69
2022/05/19 11:34:37;;;;;;;2.58;1.40;;;26.40;48.20;;;;;;4978353;28;20105;-69
2022/05/19 11:37:15;;;;;;;2.20;1.30;;;26.40;47.90;;;;;;4983505;28;20066;-69
2022/05/19 11:40:04;;;;;;;2.28;1.30;;;26.40;47.80;;;;;;4985055;28;20054;-69
2022/05/19 11:42:40;;;;;;;7.45;1.48;;;26.40;47.90;;;;;;4983952;28;20078;-70
2022/05/19 11:45:14;;;;;;;5.40;1.35;;;26.40;47.90;;;;;;4983755;28;20057;-71
2022/05/19 11:56:23;;;;;;;3.42;1.58;;;26.70;47.30;;;;;;4983107;28;20046;-70
2022/05/19 11:58:51;;;;;;;3.53;1.80;;;26.70;47.30;;;;;;4982403;28;20049;-71
2022/05/19 12:01:25;;;;;;;3.35;1.80;;;26.70;47.40;;;;;;4979222;28;20050;-67
2022/05/19 12:04:08;;;;;;;3.95;2.05;;;26.70;47.30;;;;;;4981538;28;20070;-72
2022/05/19 12:06:46;;;;;;;4.95;2.13;;;26.70;47.50;;;;;;4981900;28;20050;-70
2022/05/19 12:09:25;;;;;;;6.18;1.85;;;26.70;47.40;;;;;;4982363;28;20043;-70
2022/05/19 12:11:57;;;;;;;5.95;2.15;;;26.70;47.30;;;;;;4979362;28;20047;-69
2022/05/19 12:14:40;;;;;;;3.42;1.42;;;26.70;47.70;;;;;;4964750;28;20053;-70
2022/05/19 12:17:15;;;;;;;3.58;1.40;;;26.70;47.20;;;;;;4980910;28;20439;-70
2022/05/19 12:19:47;;;;;;;3.28;1.42;;;26.80;47.50;;;;;;4982222;28;20116;-68
2022/05/19 12:22:25;;;;;;;2.47;1.45;;;26.80;47.20;;;;;;4981331;28;20606;-69
2022/05/19 12:24:55;;;;;;;3.28;1.55;;;26.70;47.40;;;;;;4981370;28;20125;-70
2022/05/19 12:27:24;;;;;;;4.28;1.88;;;26.60;47.50;;;;;;4982792;28;20051;-68
2022/05/19 12:31:56;;;;;;;2.95;1.58;;;26.60;47.80;;;;;;4981182;28;20054;-70
2022/05/19 12:33:01;;;;;;;3.72;1.83;;;26.60;47.90;;;;;;4982176;28;20038;-69
2022/05/19 12:35:29;;;;;;;3.35;1.63;;;26.60;48.10;;;;;;4982139;28;20145;-69
2022/05/19 12:38:03;;;;;;;5.93;1.80;;;26.60;48.00;;;;;;4983022;28;20104;-67
2022/05/19 12:40:54;;;;;;;2.08;1.20;;;26.60;48.10;;;;;;4982555;28;20054;-67
2022/05/19 12:43:43;;;;;;;1.55;1.27;;;26.60;48.30;;;;;;4982063;28;20061;-69
2022/05/19 12:46:13;;;;;;;2.58;1.70;;;26.60;48.40;;;;;;4982239;28;20053;-68
2022/05/19 12:49:13;;;;;;;3.50;1.77;;;26.60;48.40;;;;;;4978421;28;20103;-69
2022/05/19 12:52:09;;;;;;;2.42;1.42;;;26.60;48.50;;;;;;4983197;28;20555;-68
2022/05/19 12:54:36;;;;;;;2.35;1.20;;;26.60;48.50;;;;;;4973140;28;20058;-69
2022/05/19 12:57:27;;;;;;;5.50;1.95;;;26.50;48.60;;;;;;4982818;28;20050;-70
2022/05/19 13:00:23;;;;;;;4.45;2.03;;;26.50;48.60;;;;;;4981949;28;20046;-69
2022/05/19 13:03:02;;;;;;;3.97;1.92;;;26.50;48.70;;;;;;4937809;28;20059;-70
2022/05/19 13:05:35;;;;;;;4.72;2.25;;;26.60;48.90;;;;;;4982005;28;20519;-68
2022/05/19 13:08:10;;;;;;;4.78;1.90;;;26.60;48.80;;;;;;4979762;28;20442;-70
2022/05/19 13:10:39;;;;;;;6.35;2.67;;;26.50;49.00;;;;;;4979252;28;20054;-68
2022/05/19 13:13:17;;;;;;;4.50;2.53;;;26.50;48.90;;;;;;4981807;28;20503;-68
2022/05/19 13:15:50;;;;;;;4.78;2.58;;;26.60;49.10;;;;;;4981373;28;20042;-68
2022/05/19 13:18:18;;;;;;;4.28;1.90;;;26.60;49.20;;;;;;4981095;28;20045;-70
2022/05/19 13:20:45;;;;;;;6.60;2.33;;;26.60;48.90;;;;;;4979781;28;20034;-69
2022/05/19 13:23:23;;;;;;;7.65;2.10;;;26.70;49.10;;;;;;4981178;28;20120;-68
2022/05/19 13:25:52;;;;;;;5.67;2.10;;;26.70;49.00;;;;;;4981721;28;20100;-66
2022/05/19 13:31:22;;;;;;;4.45;2.03;;;26.80;49.00;;;;;;4981555;28;20065;-69
2022/05/19 13:33:51;;;;;;;3.28;2.00;;;26.80;49.00;;;;;;4982191;28;20054;-69